createdAt,value
2018-01-27T00:01:10.763Z,58.60
2018-01-27T00:03:38.444Z,58.67
2018-01-27T00:06:06.743Z,58.53
2018-01-27T00:08:34.286Z,61.20
2018-01-27T00:11:02.364Z,57.20
2018-01-27T00:13:29.962Z,57.33
2018-01-27T00:15:57.645Z,58.60
2018-01-27T00:18:25.253Z,56.33
2018-01-27T00:20:52.810Z,59.13
2018-01-27T00:23:21.192Z,57.70
2018-01-27T00:25:48.771Z,58.37
2018-01-27T00:28:17.121Z,57.00
2018-01-27T00:30:45.428Z,60.40
2018-01-27T00:33:13.019Z,56.40
2018-01-27T00:35:40.532Z,56.40
2018-01-27T00:38:08.110Z,58.53
2018-01-27T00:40:35.989Z,55.17
2018-01-27T00:43:03.525Z,58.40
2018-01-27T00:45:31.865Z,58.60
2018-01-27T00:47:59.436Z,60.93
2018-01-27T00:50:27.767Z,57.77
2018-01-27T00:52:55.695Z,56.77
2018-01-27T00:55:23.257Z,57.03
2018-01-27T00:57:51.591Z,58.77
2018-01-27T01:00:19.283Z,55.67
2018-01-27T01:02:46.895Z,57.80
2018-01-27T01:05:14.761Z,55.97
2018-01-27T01:07:42.321Z,56.90
2018-01-27T01:10:09.913Z,56.80
2018-01-27T01:12:37.482Z,60.23
2018-01-27T01:15:05.433Z,59.33
2018-01-27T01:17:32.992Z,61.83
2018-01-27T01:20:00.602Z,60.70
2018-01-27T01:22:28.153Z,59.27
2018-01-27T01:24:55.732Z,57.57
2018-01-27T01:27:23.359Z,56.33
2018-01-27T01:29:50.937Z,54.20
2018-01-27T01:32:18.501Z,55.03
2018-01-27T01:34:46.063Z,59.00
2018-01-27T01:37:13.633Z,54.87
2018-01-27T01:39:41.176Z,54.37
2018-01-27T01:42:08.768Z,52.50
2018-01-27T01:44:36.623Z,53.40
2018-01-27T01:47:04.184Z,54.33
2018-01-27T01:49:31.770Z,59.10
2018-01-27T01:51:59.384Z,57.40
2018-01-27T01:54:26.972Z,58.53
2018-01-27T01:56:54.576Z,57.80
2018-01-27T01:59:22.165Z,55.20
2018-01-27T02:01:50.549Z,54.60
2018-01-27T02:04:18.162Z,54.83
2018-01-27T02:06:45.767Z,56.63
2018-01-27T02:09:13.591Z,53.73
2018-01-27T02:11:41.191Z,54.90
2018-01-27T02:14:08.810Z,56.43
2018-01-27T02:16:36.419Z,54.30
2018-01-27T02:19:04.239Z,55.30
2018-01-27T02:21:33.695Z,56.60
2018-01-27T02:24:01.225Z,55.17
2018-01-27T02:26:29.551Z,55.60
2018-01-27T02:28:57.182Z,53.53
2018-01-27T02:31:24.756Z,56.80
2018-01-27T02:33:52.371Z,55.20
2018-01-27T02:36:19.968Z,52.17
2018-01-27T02:38:47.542Z,53.43
2018-01-27T02:41:15.728Z,49.53
2018-01-27T02:43:43.273Z,47.30
2018-01-27T02:46:10.853Z,44.83
2018-01-27T02:48:38.466Z,45.60
2018-01-27T02:51:06.794Z,46.27
2018-01-27T02:53:34.317Z,41.70
2018-01-27T02:56:01.875Z,41.87
2018-01-27T02:58:29.456Z,39.17
2018-01-27T03:00:57.020Z,37.90
2018-01-27T03:03:24.576Z,38.30
2018-01-27T03:05:52.480Z,35.20
2018-01-27T03:08:20.031Z,33.30
2018-01-27T03:10:47.570Z,28.50
2018-01-27T03:13:15.739Z,29.33
2018-01-27T03:15:43.249Z,28.60
2018-01-27T03:18:10.865Z,31.10
2018-01-27T03:20:38.438Z,33.63
2018-01-27T03:23:05.982Z,29.93
2018-01-27T03:25:33.616Z,27.07
2018-01-27T03:28:01.920Z,25.23
2018-01-27T03:30:29.497Z,25.10
2018-01-27T03:32:57.018Z,23.20
2018-01-27T03:35:24.583Z,24.03
2018-01-27T03:37:52.138Z,22.83
2018-01-27T03:40:19.759Z,24.67
2018-01-27T03:42:47.310Z,24.10
2018-01-27T03:45:14.948Z,24.77
2018-01-27T03:47:42.575Z,24.80
2018-01-27T03:50:10.922Z,23.50
2018-01-27T03:52:39.235Z,25.37
2018-01-27T03:55:07.555Z,27.00
2018-01-27T03:57:35.150Z,27.23
2018-01-27T04:00:02.677Z,25.73
2018-01-27T04:02:30.701Z,24.50
2018-01-27T04:04:58.257Z,24.60
2018-01-27T04:07:25.791Z,24.30
2018-01-27T04:09:53.330Z,24.63
2018-01-27T04:12:20.903Z,24.90
2018-01-27T04:14:48.528Z,25.03
2018-01-27T04:17:16.942Z,25.20
2018-01-27T04:19:44.560Z,24.30
2018-01-27T04:22:12.133Z,27.07
2018-01-27T04:24:39.710Z,25.57
2018-01-27T04:27:07.312Z,25.03
2018-01-27T04:29:34.887Z,23.90
2018-01-27T04:32:02.451Z,26.50
2018-01-27T04:34:30.086Z,28.00
2018-01-27T04:36:57.689Z,25.90
2018-01-27T04:39:25.215Z,25.80
2018-01-27T04:41:52.783Z,29.43
2018-01-27T04:44:20.328Z,25.60
2018-01-27T04:46:48.648Z,27.10
2018-01-27T04:49:16.944Z,26.97
2018-01-27T04:51:44.528Z,27.20
2018-01-27T04:54:12.073Z,27.17
2018-01-27T04:56:39.658Z,27.77
2018-01-27T04:59:07.984Z,28.90
2018-01-27T05:01:35.563Z,27.27
2018-01-27T05:04:03.124Z,28.07
2018-01-27T05:06:30.675Z,31.23
2018-01-27T05:08:58.203Z,29.27
2018-01-27T05:11:25.787Z,27.90
2018-01-27T05:13:53.336Z,26.53
2018-01-27T05:16:21.051Z,22.37
2018-01-27T05:18:48.556Z,25.23
2018-01-27T05:21:17.571Z,23.83
2018-01-27T05:23:45.180Z,24.60
2018-01-27T05:26:13.541Z,25.23
2018-01-27T05:28:41.894Z,26.33
2018-01-27T05:31:10.376Z,24.93
2018-01-27T05:33:37.929Z,24.63
2018-01-27T05:36:05.474Z,24.03
2018-01-27T05:38:33.596Z,25.67
2018-01-27T05:41:01.175Z,22.27
2018-01-27T05:43:29.515Z,25.30
2018-01-27T05:45:57.097Z,24.77
2018-01-27T05:48:24.659Z,27.30
2018-01-27T05:50:52.280Z,24.43
2018-01-27T05:53:19.893Z,25.23
2018-01-27T05:55:47.447Z,23.53
2018-01-27T05:58:15.152Z,25.73
2018-01-27T06:00:42.801Z,25.30
2018-01-27T06:03:10.335Z,24.30
2018-01-27T06:05:37.918Z,25.60
2018-01-27T06:08:05.468Z,23.80
2018-01-27T06:10:33.070Z,22.80
2018-01-27T06:13:00.597Z,23.87
2018-01-27T06:15:28.164Z,25.50
2018-01-27T06:17:55.760Z,22.87
2018-01-27T06:20:23.308Z,24.00
2018-01-27T06:22:50.965Z,23.50
2018-01-27T06:25:18.558Z,22.53
2018-01-27T06:27:46.142Z,22.40
2018-01-27T06:30:14.474Z,21.43
2018-01-27T06:32:42.024Z,20.90
2018-01-27T06:35:09.571Z,20.70
2018-01-27T06:37:37.163Z,21.00
2018-01-27T06:40:05.539Z,19.83
2018-01-27T06:42:33.298Z,19.00
2018-01-27T06:45:00.861Z,20.70
2018-01-27T06:47:28.386Z,19.50
2018-01-27T06:49:55.983Z,19.63
2018-01-27T06:52:23.568Z,18.80
2018-01-27T06:54:51.088Z,17.70
2018-01-27T06:57:18.658Z,18.30
2018-01-27T06:59:46.239Z,17.73
2018-01-27T07:02:13.813Z,16.63
2018-01-27T07:04:41.366Z,16.63
2018-01-27T07:07:09.760Z,19.80
2018-01-27T07:09:37.307Z,23.33
2018-01-27T07:12:05.616Z,17.40
2018-01-27T07:14:33.271Z,21.20
2018-01-27T07:17:00.838Z,20.23
2018-01-27T07:19:28.431Z,17.87
2018-01-27T07:21:55.972Z,17.67
2018-01-27T07:24:23.561Z,17.20
2018-01-27T07:26:51.149Z,17.87
2018-01-27T07:29:19.455Z,17.53
2018-01-27T07:31:47.040Z,16.10
2018-01-27T07:34:14.596Z,21.80
2018-01-27T07:36:42.153Z,20.70
2018-01-27T07:39:09.728Z,21.27
2018-01-27T07:41:37.305Z,20.43
2018-01-27T07:44:04.949Z,19.77
2018-01-27T07:46:32.501Z,19.27
2018-01-27T07:49:00.100Z,19.30
2018-01-27T07:51:28.415Z,21.03
2018-01-27T07:53:56.002Z,23.00
2018-01-27T07:56:23.522Z,20.07
2018-01-27T07:58:51.054Z,20.27
2018-01-27T08:01:18.590Z,21.80
2018-01-27T08:03:46.160Z,19.37
2018-01-27T08:06:13.696Z,20.70
2018-01-27T08:08:41.277Z,19.90
2018-01-27T08:11:08.849Z,21.40
2018-01-27T08:13:36.395Z,19.57
2018-01-27T08:16:03.971Z,18.50
2018-01-27T08:18:31.608Z,20.77
2018-01-27T08:20:59.148Z,20.60
2018-01-27T08:23:26.749Z,19.13
2018-01-27T08:25:54.329Z,21.27
2018-01-27T08:28:22.650Z,21.03
2018-01-27T08:30:50.227Z,18.70
2018-01-27T08:33:17.788Z,19.07
2018-01-27T08:35:45.321Z,19.93
2018-01-27T08:38:12.898Z,19.30
2018-01-27T08:40:40.444Z,19.60
2018-01-27T08:43:08.056Z,18.53
2018-01-27T08:45:35.657Z,17.30
2018-01-27T08:48:03.207Z,17.30
2018-01-27T08:50:30.783Z,18.83
2018-01-27T08:52:58.359Z,18.60
2018-01-27T08:55:25.901Z,19.30
2018-01-27T08:57:55.100Z,19.10
2018-01-27T09:00:22.633Z,17.77
2018-01-27T09:02:50.152Z,20.50
2018-01-27T09:05:17.844Z,20.27
2018-01-27T09:07:46.146Z,22.97
2018-01-27T09:10:13.687Z,21.77
2018-01-27T09:12:42.026Z,21.00
2018-01-27T09:15:10.330Z,21.50
2018-01-27T09:17:37.875Z,19.47
2018-01-27T09:20:06.255Z,21.63
2018-01-27T09:22:33.840Z,20.67
2018-01-27T09:25:01.410Z,19.60
2018-01-27T09:27:28.931Z,22.33
2018-01-27T09:29:56.492Z,21.43
2018-01-27T09:32:24.070Z,20.50
2018-01-27T09:34:52.403Z,20.50
2018-01-27T09:37:19.996Z,22.00
2018-01-27T09:39:47.567Z,17.60
2018-01-27T09:42:15.167Z,21.93
2018-01-27T09:44:42.691Z,19.53
2018-01-27T09:47:10.267Z,18.23
2018-01-27T09:49:38.627Z,19.00
2018-01-27T09:52:06.200Z,19.20
2018-01-27T09:54:33.789Z,20.60
2018-01-27T09:57:01.341Z,20.80
2018-01-27T09:59:28.881Z,21.40
2018-01-27T10:01:56.480Z,21.67
2018-01-27T10:04:24.009Z,21.87
2018-01-27T10:06:51.555Z,19.27
2018-01-27T10:09:19.227Z,21.90
2018-01-27T10:11:46.778Z,19.80
2018-01-27T10:14:14.371Z,18.87
2018-01-27T10:16:41.978Z,20.67
2018-01-27T10:19:09.530Z,15.60
2018-01-27T10:21:37.144Z,15.20
2018-01-27T10:24:04.736Z,13.00
2018-01-27T10:26:32.363Z,13.30
2018-01-27T10:28:59.990Z,13.90
2018-01-27T10:31:27.569Z,13.10
2018-01-27T10:33:55.909Z,14.13
2018-01-27T10:36:23.423Z,13.67
2018-01-27T10:38:51.029Z,13.40
2018-01-27T10:41:18.584Z,14.40
2018-01-27T10:43:46.146Z,14.53
2018-01-27T10:46:13.714Z,14.00
2018-01-27T10:48:41.307Z,13.37
2018-01-27T10:51:09.593Z,13.40
2018-01-27T10:53:37.225Z,14.33
2018-01-27T10:56:04.764Z,14.83
2018-01-27T10:58:32.331Z,14.37
2018-01-27T11:00:59.872Z,14.87
2018-01-27T11:03:27.490Z,14.20
2018-01-27T11:05:55.882Z,14.23
2018-01-27T11:08:23.394Z,16.13
2018-01-27T11:10:51.011Z,15.10
2018-01-27T11:13:18.564Z,15.20
2018-01-27T11:15:46.226Z,15.83
2018-01-27T11:18:13.766Z,17.10
2018-01-27T11:20:41.388Z,15.10
2018-01-27T11:23:08.986Z,16.10
2018-01-27T11:25:36.517Z,16.43
2018-01-27T11:28:04.085Z,16.80
2018-01-27T11:30:31.673Z,16.13
2018-01-27T11:32:59.218Z,17.80
2018-01-27T11:35:26.768Z,17.03
2018-01-27T11:37:54.359Z,16.30
2018-01-27T11:40:22.063Z,15.13
2018-01-27T11:42:49.637Z,15.70
2018-01-27T11:45:17.225Z,15.40
2018-01-27T11:47:44.770Z,15.30
2018-01-27T11:50:12.298Z,15.40
2018-01-27T11:52:39.876Z,15.97
2018-01-27T11:55:07.461Z,16.20
2018-01-27T11:57:35.776Z,17.33
2018-01-27T12:00:03.717Z,16.60
2018-01-27T12:02:31.379Z,14.87
2018-01-27T12:04:59.680Z,15.40
2018-01-27T12:07:27.272Z,14.90
2018-01-27T12:09:54.893Z,15.83
2018-01-27T12:12:22.431Z,14.80
2018-01-27T12:14:50.246Z,16.00
2018-01-27T12:17:17.865Z,16.90
2018-01-27T12:19:46.167Z,14.93
2018-01-27T12:22:13.785Z,16.20
2018-01-27T12:24:41.356Z,17.63
2018-01-27T12:27:09.717Z,16.63
2018-01-27T12:29:37.293Z,15.80
2018-01-27T12:32:04.875Z,15.50
2018-01-27T12:34:32.583Z,16.80
2018-01-27T12:37:00.136Z,16.27
2018-01-27T12:39:27.743Z,16.63
2018-01-27T12:41:56.179Z,15.97
2018-01-27T12:44:23.732Z,17.03
2018-01-27T12:46:51.275Z,15.87
2018-01-27T12:49:18.858Z,15.63
2018-01-27T12:51:46.405Z,15.70
2018-01-27T12:54:14.028Z,16.40
2018-01-27T12:56:41.611Z,15.80
2018-01-27T12:59:09.206Z,16.67
2018-01-27T13:01:36.743Z,15.60
2018-01-27T13:04:04.295Z,15.30
2018-01-27T13:06:31.841Z,16.37
2018-01-27T13:09:00.593Z,15.70
2018-01-27T13:11:28.383Z,15.70
2018-01-27T13:13:56.088Z,16.63
2018-01-27T13:16:23.651Z,16.90
2018-01-27T13:18:51.209Z,15.77
2018-01-27T13:21:18.777Z,16.10
2018-01-27T13:23:46.451Z,14.90
2018-01-27T13:26:14.003Z,17.50
2018-01-27T13:28:41.564Z,18.80
2018-01-27T13:31:09.113Z,15.63
2018-01-27T13:33:36.672Z,14.10
2018-01-27T13:36:05.235Z,16.60
2018-01-27T13:38:32.902Z,17.80
2018-01-27T13:41:00.462Z,15.93
2018-01-27T13:43:28.049Z,15.00
2018-01-27T13:45:55.618Z,14.17
2018-01-27T13:48:23.238Z,15.80
2018-01-27T13:50:50.837Z,14.30
2018-01-27T13:53:18.437Z,15.50
2018-01-27T13:55:46.058Z,16.33
2018-01-27T13:58:13.607Z,16.43
2018-01-27T14:00:41.191Z,16.80
2018-01-27T14:03:08.759Z,18.37
2018-01-27T14:05:37.099Z,18.00
2018-01-27T14:08:04.633Z,16.73
2018-01-27T14:10:32.154Z,15.83
2018-01-27T14:12:59.702Z,15.30
2018-01-27T14:15:27.234Z,14.00
2018-01-27T14:17:54.784Z,15.00
2018-01-27T14:20:22.497Z,14.57
2018-01-27T14:22:50.060Z,15.13
2018-01-27T14:25:17.643Z,14.93
2018-01-27T14:27:45.184Z,14.70
2018-01-27T14:30:13.503Z,14.40
2018-01-27T14:32:41.269Z,13.53
2018-01-27T14:35:08.800Z,13.60
2018-01-27T14:37:36.366Z,14.43
2018-01-27T14:40:04.390Z,14.27
2018-01-27T14:42:32.700Z,14.07
2018-01-27T14:45:01.003Z,14.40
2018-01-27T14:47:28.564Z,14.17
2018-01-27T14:49:56.132Z,15.10
2018-01-27T14:52:23.706Z,14.73
2018-01-27T14:54:51.682Z,15.23
2018-01-27T14:57:19.325Z,14.03
2018-01-27T14:59:46.922Z,15.60
2018-01-27T15:02:14.521Z,14.10
2018-01-27T15:04:42.056Z,16.00
2018-01-27T15:07:09.606Z,15.03
2018-01-27T15:09:37.180Z,15.50
2018-01-27T15:12:04.869Z,15.40
2018-01-27T15:14:32.448Z,17.50
2018-01-27T15:17:00.169Z,15.17
2018-01-27T15:19:27.759Z,14.80
2018-01-27T15:21:55.332Z,14.43
2018-01-27T15:24:22.916Z,15.40
2018-01-27T15:26:50.509Z,14.50
2018-01-27T15:29:18.849Z,16.70
2018-01-27T15:31:47.215Z,15.43
2018-01-27T15:34:14.850Z,13.97
2018-01-27T15:36:42.426Z,14.90
2018-01-27T15:39:10.060Z,16.20
2018-01-27T15:41:38.435Z,14.70
2018-01-27T15:44:06.088Z,16.20
2018-01-27T15:46:34.458Z,16.73
2018-01-27T15:49:02.097Z,15.60
2018-01-27T15:51:29.690Z,15.47
2018-01-27T15:53:58.078Z,16.23
2018-01-27T15:56:25.614Z,16.10
2018-01-27T15:58:53.430Z,15.97
2018-01-27T16:01:21.023Z,16.37
2018-01-27T16:03:48.611Z,16.80
2018-01-27T16:06:17.140Z,16.30
2018-01-27T16:08:44.739Z,16.67
2018-01-27T16:11:12.338Z,17.07
2018-01-27T16:13:40.229Z,17.57
2018-01-27T16:16:07.824Z,17.27
2018-01-27T16:18:36.177Z,17.80
2018-01-27T16:21:04.516Z,17.63
2018-01-27T16:23:32.126Z,15.53
2018-01-27T16:25:59.673Z,18.57
2018-01-27T16:28:27.268Z,16.90
2018-01-27T16:30:54.808Z,19.70
2018-01-27T16:33:22.513Z,16.43
2018-01-27T16:35:50.058Z,16.97
2018-01-27T16:38:18.415Z,16.43
2018-01-27T16:40:46.007Z,17.70
2018-01-27T16:43:14.349Z,16.20
2018-01-27T16:45:41.906Z,14.87
2018-01-27T16:48:09.501Z,13.70
2018-01-27T16:50:37.097Z,13.90
2018-01-27T16:53:04.666Z,15.50
2018-01-27T16:55:32.229Z,15.53
2018-01-27T16:58:00.548Z,17.00
2018-01-27T17:00:28.102Z,16.33
2018-01-27T17:02:55.972Z,17.27
2018-01-27T17:05:23.711Z,15.77
2018-01-27T17:07:51.455Z,16.60
2018-01-27T17:10:18.996Z,16.70
2018-01-27T17:12:46.601Z,15.73
2018-01-27T17:15:15.891Z,15.40
2018-01-27T17:17:43.427Z,15.20
2018-01-27T17:20:11.042Z,14.20
2018-01-27T17:22:39.181Z,15.07
2018-01-27T17:25:07.451Z,13.27
2018-01-27T17:27:35.012Z,13.63
2018-01-27T17:30:02.611Z,11.67
2018-01-27T17:32:30.246Z,10.80
2018-01-27T17:34:57.886Z,13.03
2018-01-27T17:37:25.459Z,11.60
2018-01-27T17:39:53.042Z,11.63
2018-01-27T17:42:20.651Z,11.83
2018-01-27T17:44:48.235Z,13.50
2018-01-27T17:47:16.590Z,13.50
2018-01-27T17:49:44.185Z,14.00
2018-01-27T17:52:11.762Z,12.97
2018-01-27T17:54:39.316Z,14.50
2018-01-27T17:57:06.984Z,12.43
2018-01-27T17:59:35.088Z,13.20
2018-01-27T18:02:02.733Z,14.43
2018-01-27T18:04:34.029Z,15.47
2018-01-27T18:07:01.707Z,14.73
2018-01-27T18:09:29.330Z,15.57
2018-01-27T18:11:57.742Z,14.80
2018-01-27T18:14:25.553Z,17.10
2018-01-27T18:16:53.134Z,14.20
2018-01-27T18:19:20.807Z,14.50
2018-01-27T18:21:48.342Z,15.70
2018-01-27T18:24:16.677Z,21.27
2018-01-27T18:26:44.269Z,17.80
2018-01-27T18:29:11.927Z,18.23
2018-01-27T18:31:39.850Z,17.10
2018-01-27T18:34:07.504Z,17.70
2018-01-27T18:36:35.096Z,15.40
2018-01-27T18:39:02.663Z,18.10
2018-01-27T18:41:32.542Z,17.20
2018-01-27T18:44:00.092Z,17.10
2018-01-27T18:46:27.666Z,18.57
2018-01-27T18:48:55.234Z,22.97
2018-01-27T18:51:23.577Z,19.70
2018-01-27T18:53:52.029Z,16.33
2018-01-27T18:56:19.571Z,16.27
2018-01-27T18:58:47.207Z,16.33
2018-01-27T19:01:15.155Z,15.90
2018-01-27T19:03:42.696Z,15.27
2018-01-27T19:06:11.415Z,17.37
2018-01-27T19:08:39.725Z,19.30
2018-01-27T19:11:07.317Z,16.77
2018-01-27T19:13:35.658Z,17.00
2018-01-27T19:16:03.263Z,16.50
2018-01-27T19:18:30.938Z,15.90
2018-01-27T19:20:59.332Z,15.80
2018-01-27T19:23:26.956Z,15.40
2018-01-27T19:25:54.520Z,16.73
2018-01-27T19:28:22.938Z,16.83
2018-01-27T19:30:50.627Z,15.73
2018-01-27T19:33:18.213Z,18.47
2018-01-27T19:35:45.809Z,16.80
2018-01-27T19:38:13.403Z,16.83
2018-01-27T19:40:40.988Z,14.87
2018-01-27T19:43:08.555Z,16.63
2018-01-27T19:45:36.123Z,18.23
2018-01-27T19:48:03.724Z,17.73
2018-01-27T19:50:31.367Z,16.73
2018-01-27T19:52:58.940Z,17.33
2018-01-27T19:55:26.496Z,18.90
2018-01-27T19:57:54.255Z,17.37
2018-01-27T20:00:21.799Z,18.40
2018-01-27T20:02:50.190Z,18.77
2018-01-27T20:05:17.725Z,17.87
2018-01-27T20:07:45.310Z,19.53
2018-01-27T20:10:13.436Z,17.67
2018-01-27T20:12:41.049Z,18.33
2018-01-27T20:15:08.637Z,19.10
2018-01-27T20:17:36.976Z,21.67
2018-01-27T20:20:05.210Z,21.17
2018-01-27T20:22:32.796Z,25.17
2018-01-27T20:25:00.400Z,20.13
2018-01-27T20:27:27.947Z,23.67
2018-01-27T20:29:55.523Z,20.00
2018-01-27T20:32:23.167Z,19.67
2018-01-27T20:34:50.712Z,21.07
2018-01-27T20:37:19.095Z,18.93
2018-01-27T20:39:47.395Z,19.00
2018-01-27T20:42:15.163Z,18.80
2018-01-27T20:44:42.712Z,19.23
2018-01-27T20:47:10.248Z,20.63
2018-01-27T20:49:37.902Z,19.30
2018-01-27T20:52:05.552Z,19.50
2018-01-27T20:54:33.156Z,20.10
2018-01-27T20:57:00.754Z,18.83
2018-01-27T20:59:28.332Z,19.80
2018-01-27T21:01:56.859Z,21.17
2018-01-27T21:04:24.404Z,21.80
2018-01-27T21:06:52.755Z,21.03
2018-01-27T21:09:20.356Z,20.47
2018-01-27T21:11:48.136Z,22.50
2018-01-27T21:14:15.699Z,22.50
2018-01-27T21:16:43.274Z,18.57
2018-01-27T21:19:10.921Z,19.87
2018-01-27T21:21:38.569Z,20.13
2018-01-27T21:24:06.163Z,19.57
2018-01-27T21:26:33.750Z,20.80
2018-01-27T21:29:01.344Z,23.50
2018-01-27T21:31:28.906Z,21.00
2018-01-27T21:33:56.510Z,18.17
2018-01-27T21:36:24.089Z,18.90
2018-01-27T21:38:51.710Z,21.10
2018-01-27T21:41:20.055Z,19.90
2018-01-27T21:43:47.710Z,19.53
2018-01-27T21:46:15.294Z,20.20
2018-01-27T21:48:42.876Z,20.70
2018-01-27T21:51:10.447Z,23.47
2018-01-27T21:53:37.983Z,25.93
2018-01-27T21:56:05.585Z,24.63
2018-01-27T21:58:33.206Z,23.67
2018-01-27T22:01:00.987Z,20.97
2018-01-27T22:03:31.953Z,24.20
2018-01-27T22:05:59.528Z,22.00
2018-01-27T22:08:27.888Z,21.60
2018-01-27T22:10:55.459Z,22.47
2018-01-27T22:13:23.083Z,20.00
2018-01-27T22:15:50.645Z,20.30
2018-01-27T22:18:18.198Z,20.77
2018-01-27T22:20:45.898Z,19.77
2018-01-27T22:23:13.427Z,19.90
2018-01-27T22:25:41.061Z,22.47
2018-01-27T22:28:08.685Z,20.03
2018-01-27T22:30:36.263Z,20.07
2018-01-27T22:33:03.960Z,23.10
2018-01-27T22:35:31.860Z,20.77
2018-01-27T22:37:59.504Z,21.87
2018-01-27T22:40:27.123Z,21.97
2018-01-27T22:42:54.735Z,21.80
2018-01-27T22:45:22.267Z,20.77
2018-01-27T22:47:49.824Z,21.73
2018-01-27T22:50:17.369Z,23.10
2018-01-27T22:52:45.009Z,22.63
2018-01-27T22:55:13.347Z,25.20
2018-01-27T22:57:40.890Z,27.07
2018-01-27T23:00:08.528Z,24.43
2018-01-27T23:02:36.094Z,24.70
2018-01-27T23:05:04.617Z,25.97
2018-01-27T23:07:32.925Z,26.37
2018-01-27T23:10:00.475Z,25.80
2018-01-27T23:12:28.080Z,25.70
2018-01-27T23:14:55.786Z,25.00
2018-01-27T23:17:23.348Z,26.93
2018-01-27T23:19:50.962Z,23.37
2018-01-27T23:22:20.324Z,24.60
2018-01-27T23:24:47.857Z,27.70
2018-01-27T23:27:16.008Z,25.20
2018-01-27T23:29:43.570Z,24.90
2018-01-27T23:32:11.759Z,25.60
2018-01-27T23:34:39.354Z,27.23
2018-01-27T23:37:06.990Z,25.50
2018-01-27T23:39:34.573Z,25.93
2018-01-27T23:42:02.260Z,25.57
2018-01-27T23:44:29.778Z,28.70
2018-01-27T23:46:57.347Z,26.57
2018-01-27T23:49:25.005Z,26.33
2018-01-27T23:51:52.583Z,27.07
2018-01-27T23:54:23.104Z,26.23
2018-01-27T23:56:50.661Z,26.50
2018-01-27T23:59:18.176Z,27.10
